CheckWX is a tool to help pilots better visualize weather data.  It is not intended as a substitute for an official pre-flight weather briefing.

02:19:47 UTC

KJAU METAR
Campbell County Airport
Jacksboro, Tennessee, USA
Current

25 mins ago

KJAU 190155Z AUTO 03003KT 10SM OVC060 24/20 A3010 RMK A01
Observed
Sep-19 @ 01:55 UTC
Wind
  • 030° at 3 KTS
Visibility
10 SM
Flight Rules
VFR
Cloud Levels
  • Overcast at 6,000' AGL
Temperature
24°C / 75°F
Dewpoint
20°C / 68°F
Humidity
78%
Altimeter
30.1" Hg
Pressure
1019.32 hPa
Previous

45 mins ago

KJAU 190135Z AUTO 06005KT 10SM BKN060 BKN070 OVC085 24/21 A3009 RMK A01
Observed
Sep-19 @ 01:35 UTC
Wind
  • 060° at 5 KTS
Visibility
10 SM
Flight Rules
VFR
Cloud Levels
  • Broken at 6,000' AGL
  • Broken at 7,000' AGL
  • Overcast at 8,500' AGL
Temperature
24°C / 75°F
Dewpoint
21°C / 70°F
Humidity
83%
Altimeter
30.09" Hg
Pressure
1018.92 hPa
Previous

1 hour ago

KJAU 190115Z AUTO 00000KT 10SM BKN085 24/20 A3008 RMK A01
Observed
Sep-19 @ 01:15 UTC
Visibility
10 SM
Flight Rules
VFR
Cloud Levels
  • Broken at 8,500' AGL
Temperature
24°C / 75°F
Dewpoint
20°C / 68°F
Humidity
78%
Altimeter
30.08" Hg
Pressure
1018.62 hPa